sensor_id;sensor_type;location;lat;lon;timestamp;pressure;altitude;pressure_sealevel;temperature;humidity
65359;BME280;52491;45.900;6.346;2023-11-19T00:00:25;94382.06;;;26.31;29.31
65359;BME280;52491;45.900;6.346;2023-11-19T00:02:50;94386.88;;;26.34;28.84
65359;BME280;52491;45.900;6.346;2023-11-19T00:05:16;94377.00;;;26.35;29.07
65359;BME280;52491;45.900;6.346;2023-11-19T00:07:42;94373.53;;;26.34;28.77
65359;BME280;52491;45.900;6.346;2023-11-19T00:10:13;94372.47;;;26.36;29.03
65359;BME280;52491;45.900;6.346;2023-11-19T00:12:43;94374.88;;;26.37;28.75
65359;BME280;52491;45.900;6.346;2023-11-19T00:15:15;94376.47;;;26.38;28.83
65359;BME280;52491;45.900;6.346;2023-11-19T00:17:42;94377.53;;;26.37;28.98
65359;BME280;52491;45.900;6.346;2023-11-19T00:20:19;94373.28;;;26.36;28.82
65359;BME280;52491;45.900;6.346;2023-11-19T00:22:45;94358.81;;;26.37;28.52
65359;BME280;52491;45.900;6.346;2023-11-19T00:25:20;94360.41;;;26.38;28.86
65359;BME280;52491;45.900;6.346;2023-11-19T00:27:47;94358.03;;;26.37;28.72
65359;BME280;52491;45.900;6.346;2023-11-19T00:30:13;94370.59;;;26.36;28.77
65359;BME280;52491;45.900;6.346;2023-11-19T00:32:39;94376.47;;;26.38;28.88
65359;BME280;52491;45.900;6.346;2023-11-19T00:35:05;94376.47;;;26.38;28.43
65359;BME280;52491;45.900;6.346;2023-11-19T00:37:31;94377.81;;;26.36;28.60
65359;BME280;52491;45.900;6.346;2023-11-19T00:39:57;94378.09;;;26.39;28.85
65359;BME280;52491;45.900;6.346;2023-11-19T00:42:23;94378.34;;;26.43;28.69
65359;BME280;52491;45.900;6.346;2023-11-19T00:44:52;94374.34;;;26.45;28.37
65359;BME280;52491;45.900;6.346;2023-11-19T00:47:18;94366.34;;;26.45;28.58
65359;BME280;52491;45.900;6.346;2023-11-19T00:49:47;94367.13;;;26.46;28.75
65359;BME280;52491;45.900;6.346;2023-11-19T00:52:16;94366.34;;;26.45;28.57
65359;BME280;52491;45.900;6.346;2023-11-19T00:54:41;94365.53;;;26.40;28.33
65359;BME280;52491;45.900;6.346;2023-11-19T00:57:07;94370.84;;;26.34;28.45
65359;BME280;52491;45.900;6.346;2023-11-19T00:59:33;94374.56;;;26.23;28.56
65359;BME280;52491;45.900;6.346;2023-11-19T01:01:58;94364.66;;;26.19;28.72
65359;BME280;52491;45.900;6.346;2023-11-19T01:04:34;94366.00;;;26.16;28.92
65359;BME280;52491;45.900;6.346;2023-11-19T01:07:03;94366.25;;;26.15;28.75
65359;BME280;52491;45.900;6.346;2023-11-19T01:09:31;94369.16;;;26.13;29.03
65359;BME280;52491;45.900;6.346;2023-11-19T01:12:00;94361.47;;;26.27;28.61
65359;BME280;52491;45.900;6.346;2023-11-19T01:14:26;94361.22;;;26.28;28.74
65359;BME280;52491;45.900;6.346;2023-11-19T01:16:52;94364.69;;;26.29;28.63
65359;BME280;52491;45.900;6.346;2023-11-19T01:19:19;94368.91;;;25.67;29.66
65359;BME280;52491;45.900;6.346;2023-11-19T01:21:44;94369.88;;;25.51;29.89
65359;BME280;52491;45.900;6.346;2023-11-19T01:24:10;94371.44;;;25.84;29.30
65359;BME280;52491;45.900;6.346;2023-11-19T01:26:38;94364.06;;;26.06;29.02
65359;BME280;52491;45.900;6.346;2023-11-19T01:29:04;94361.88;;;25.93;28.98
65359;BME280;52491;45.900;6.346;2023-11-19T01:31:30;94360.09;;;26.14;29.06
65359;BME280;52491;45.900;6.346;2023-11-19T01:33:57;94364.38;;;26.20;28.19
65359;BME280;52491;45.900;6.346;2023-11-19T01:36:22;94361.47;;;26.22;28.42
65359;BME280;52491;45.900;6.346;2023-11-19T01:38:49;94369.22;;;26.23;28.52
65359;BME280;52491;45.900;6.346;2023-11-19T01:41:15;94358.50;;;26.23;28.63
65359;BME280;52491;45.900;6.346;2023-11-19T01:43:40;94357.72;;;26.23;28.51
65359;BME280;52491;45.900;6.346;2023-11-19T01:46:07;94357.97;;;26.21;28.38
65359;BME280;52491;45.900;6.346;2023-11-19T01:48:36;94353.06;;;25.98;29.04
65359;BME280;52491;45.900;6.346;2023-11-19T01:51:06;94345.41;;;26.17;28.39
65359;BME280;52491;45.900;6.346;2023-11-19T01:53:34;94347.28;;;26.21;28.42
65359;BME280;52491;45.900;6.346;2023-11-19T01:56:02;94347.28;;;26.21;28.51
65359;BME280;52491;45.900;6.346;2023-11-19T01:58:28;94345.16;;;26.28;28.49
65359;BME280;52491;45.900;6.346;2023-11-19T02:00:56;94342.75;;;26.27;28.51
65359;BME280;52491;45.900;6.346;2023-11-19T02:03:22;94340.63;;;26.29;28.49
65359;BME280;52491;45.900;6.346;2023-11-19T02:05:49;94335.03;;;26.30;28.33
65359;BME280;52491;45.900;6.346;2023-11-19T02:08:16;94337.41;;;26.32;28.37
65359;BME280;52491;45.900;6.346;2023-11-19T02:10:41;94338.22;;;26.32;28.04
65359;BME280;52491;45.900;6.346;2023-11-19T02:13:08;94336.63;;;26.31;28.15
65359;BME280;52491;45.900;6.346;2023-11-19T02:15:35;94339.56;;;26.30;28.06
65359;BME280;52491;45.900;6.346;2023-11-19T02:18:36;94331.53;;;26.35;28.12
65359;BME280;52491;45.900;6.346;2023-11-19T02:21:01;94337.63;;;26.15;28.49
65359;BME280;52491;45.900;6.346;2023-11-19T02:23:27;94334.44;;;26.08;28.29
65359;BME280;52491;45.900;6.346;2023-11-19T02:28:46;94334.44;;;26.18;28.63
65359;BME280;52491;45.900;6.346;2023-11-19T02:31:11;94335.81;;;26.26;28.34
65359;BME280;52491;45.900;6.346;2023-11-19T02:33:38;94339.03;;;26.28;28.20
65359;BME280;52491;45.900;6.346;2023-11-19T02:36:07;94338.22;;;26.27;28.12
65359;BME280;52491;45.900;6.346;2023-11-19T02:38:34;94337.41;;;26.27;28.25
65359;BME280;52491;45.900;6.346;2023-11-19T02:41:02;94331.25;;;26.26;28.25
65359;BME280;52491;45.900;6.346;2023-11-19T02:43:28;94324.03;;;26.27;28.25
65359;BME280;52491;45.900;6.346;2023-11-19T02:45:54;94323.25;;;26.26;28.02
65359;BME280;52491;45.900;6.346;2023-11-19T02:48:21;94325.91;;;26.26;28.35
65359;BME280;52491;45.900;6.346;2023-11-19T02:50:46;94314.44;;;26.26;28.12
65359;BME280;52491;45.900;6.346;2023-11-19T02:53:13;94317.09;;;26.26;28.17
65359;BME280;52491;45.900;6.346;2023-11-19T02:55:38;94319.78;;;26.26;28.25
65359;BME280;52491;45.900;6.346;2023-11-19T02:58:06;94315.50;;;26.25;28.19
65359;BME280;52491;45.900;6.346;2023-11-19T03:00:39;94313.63;;;26.25;27.97
65359;BME280;52491;45.900;6.346;2023-11-19T03:03:13;94313.63;;;26.25;27.93
65359;BME280;52491;45.900;6.346;2023-11-19T03:05:47;94315.22;;;26.26;28.14
65359;BME280;52491;45.900;6.346;2023-11-19T03:08:14;94316.03;;;26.27;27.97
65359;BME280;52491;45.900;6.346;2023-11-19T03:10:39;94318.19;;;26.25;28.40
65359;BME280;52491;45.900;6.346;2023-11-19T03:13:05;94316.31;;;26.25;27.91
65359;BME280;52491;45.900;6.346;2023-11-19T03:15:31;94318.19;;;26.25;28.06
65359;BME280;52491;45.900;6.346;2023-11-19T03:17:56;94312.03;;;26.24;28.32
65359;BME280;52491;45.900;6.346;2023-11-19T03:20:22;94302.38;;;26.23;27.87
65359;BME280;52491;45.900;6.346;2023-11-19T03:22:49;94298.91;;;26.23;28.36
65359;BME280;52491;45.900;6.346;2023-11-19T03:25:16;94293.03;;;26.21;28.07
65359;BME280;52491;45.900;6.346;2023-11-19T03:27:41;94294.09;;;26.20;28.02
65359;BME280;52491;45.900;6.346;2023-11-19T03:30:11;94294.09;;;26.20;28.09
65359;BME280;52491;45.900;6.346;2023-11-19T03:32:37;94291.44;;;26.20;28.26
65359;BME280;52491;45.900;6.346;2023-11-19T03:35:04;94284.50;;;26.19;28.10
65359;BME280;52491;45.900;6.346;2023-11-19T03:37:32;94288.22;;;26.18;27.92
65359;BME280;52491;45.900;6.346;2023-11-19T03:39:58;94289.00;;;26.18;28.28
65359;BME280;52491;45.900;6.346;2023-11-19T03:42:30;94293.31;;;26.19;28.00
65359;BME280;52491;45.900;6.346;2023-11-19T03:44:56;94299.69;;;26.18;28.01
65359;BME280;52491;45.900;6.346;2023-11-19T03:47:22;94303.44;;;26.17;28.09
65359;BME280;52491;45.900;6.346;2023-11-19T03:49:51;94306.66;;;26.19;28.22
65359;BME280;52491;45.900;6.346;2023-11-19T03:52:18;94308.78;;;26.17;28.29
65359;BME280;52491;45.900;6.346;2023-11-19T03:54:43;94304.25;;;26.18;28.41
65359;BME280;52491;45.900;6.346;2023-11-19T03:57:10;94307.72;;;26.18;28.03
65359;BME280;52491;45.900;6.346;2023-11-19T03:59:39;94306.38;;;26.16;28.10
65359;BME280;52491;45.900;6.346;2023-11-19T04:02:05;94298.34;;;26.16;28.06
65359;BME280;52491;45.900;6.346;2023-11-19T04:04:31;94304.53;;;26.16;27.92
65359;BME280;52491;45.900;6.346;2023-11-19T04:06:57;94291.16;;;26.16;28.33
65359;BME280;52491;45.900;6.346;2023-11-19T04:09:23;94298.34;;;26.16;27.96
65359;BME280;52491;45.900;6.346;2023-11-19T04:11:49;94296.75;;;26.15;28.05
65359;BME280;52491;45.900;6.346;2023-11-19T04:14:15;94294.09;;;26.15;28.38
65359;BME280;52491;45.900;6.346;2023-11-19T04:16:43;94295.16;;;26.14;27.99
65359;BME280;52491;45.900;6.346;2023-11-19T04:19:08;94300.50;;;26.14;27.99
65359;BME280;52491;45.900;6.346;2023-11-19T04:21:34;94299.97;;;26.11;28.40
65359;BME280;52491;45.900;6.346;2023-11-19T04:23:59;94300.50;;;26.14;28.11
65359;BME280;52491;45.900;6.346;2023-11-19T04:26:26;94295.69;;;26.10;28.45
65359;BME280;52491;45.900;6.346;2023-11-19T04:28:51;94298.38;;;26.10;28.00
65359;BME280;52491;45.900;6.346;2023-11-19T04:31:17;94287.69;;;26.10;27.97
65359;BME280;52491;45.900;6.346;2023-11-19T04:33:42;94294.63;;;26.11;28.28
65359;BME280;52491;45.900;6.346;2023-11-19T04:36:10;94293.03;;;26.10;28.45
65359;BME280;52491;45.900;6.346;2023-11-19T04:38:35;94292.19;;;26.10;28.28
65359;BME280;52491;45.900;6.346;2023-11-19T04:41:02;94296.22;;;26.12;28.26
65359;BME280;52491;45.900;6.346;2023-11-19T04:43:31;94289.28;;;26.11;28.33
65359;BME280;52491;45.900;6.346;2023-11-19T04:45:56;94293.81;;;26.11;28.07
65359;BME280;52491;45.900;6.346;2023-11-19T04:48:23;94297.53;;;26.10;28.18
65359;BME280;52491;45.900;6.346;2023-11-19T04:50:48;94293.28;;;26.09;28.19
65359;BME280;52491;45.900;6.346;2023-11-19T04:53:15;94298.63;;;26.09;28.16
65359;BME280;52491;45.900;6.346;2023-11-19T04:55:41;94305.84;;;26.08;28.40
65359;BME280;52491;45.900;6.346;2023-11-19T04:58:06;94303.97;;;26.09;28.45
65359;BME280;52491;45.900;6.346;2023-11-19T05:00:32;94302.09;;;26.09;28.29
65359;BME280;52491;45.900;6.346;2023-11-19T05:02:57;94297.00;;;26.08;28.55
65359;BME280;52491;45.900;6.346;2023-11-19T05:05:23;94291.13;;;26.06;28.57
65359;BME280;52491;45.900;6.346;2023-11-19T05:07:49;94284.69;;;26.07;28.46
65359;BME280;52491;45.900;6.346;2023-11-19T05:10:14;94291.13;;;26.06;28.47
65359;BME280;52491;45.900;6.346;2023-11-19T05:12:40;94291.13;;;26.06;28.25
65359;BME280;52491;45.900;6.346;2023-11-19T05:15:06;94276.69;;;26.07;28.58
65359;BME280;52491;45.900;6.346;2023-11-19T05:17:33;94282.03;;;26.07;28.61
65359;BME280;52491;45.900;6.346;2023-11-19T05:19:58;94269.75;;;26.06;28.43
65359;BME280;52491;45.900;6.346;2023-11-19T05:22:24;94273.22;;;26.06;28.28
65359;BME280;52491;45.900;6.346;2023-11-19T05:24:51;94267.06;;;26.06;28.36
65359;BME280;52491;45.900;6.346;2023-11-19T05:27:17;94269.47;;;25.97;28.48
65359;BME280;52491;45.900;6.346;2023-11-19T05:29:42;94258.50;;;26.04;28.32
65359;BME280;52491;45.900;6.346;2023-11-19T05:32:09;94263.59;;;26.05;28.80
65359;BME280;52491;45.900;6.346;2023-11-19T05:34:34;94263.59;;;26.05;28.76
65359;BME280;52491;45.900;6.346;2023-11-19T05:37:00;94266.28;;;26.05;28.76
65359;BME280;52491;45.900;6.346;2023-11-19T05:39:27;94260.94;;;26.05;28.52
65359;BME280;52491;45.900;6.346;2023-11-19T05:41:53;94259.31;;;26.04;28.74
65359;BME280;52491;45.900;6.346;2023-11-19T05:44:18;94265.72;;;25.98;28.87
65359;BME280;52491;45.900;6.346;2023-11-19T05:46:44;94264.66;;;25.94;28.71
65359;BME280;52491;45.900;6.346;2023-11-19T05:49:11;94252.34;;;25.93;28.63
65359;BME280;52491;45.900;6.346;2023-11-19T05:51:40;94256.63;;;25.94;28.73
65359;BME280;52491;45.900;6.346;2023-11-19T05:54:07;94255.00;;;25.93;29.01
65359;BME280;52491;45.900;6.346;2023-11-19T05:56:33;94251.53;;;25.93;28.79
65359;BME280;52491;45.900;6.346;2023-11-19T05:58:59;94242.97;;;25.90;28.93
65359;BME280;52491;45.900;6.346;2023-11-19T06:01:33;94244.59;;;25.92;28.55
65359;BME280;52491;45.900;6.346;2023-11-19T06:03:59;94249.94;;;25.92;28.92
65359;BME280;52491;45.900;6.346;2023-11-19T06:06:26;94245.41;;;25.92;28.92
65359;BME280;52491;45.900;6.346;2023-11-19T06:08:52;94245.41;;;25.92;29.07
65359;BME280;52491;45.900;6.346;2023-11-19T06:11:17;94247.00;;;25.93;28.78
65359;BME280;52491;45.900;6.346;2023-11-19T06:13:45;94247.28;;;25.92;28.96
65359;BME280;52491;45.900;6.346;2023-11-19T06:16:11;94242.72;;;25.92;28.70
65359;BME280;52491;45.900;6.346;2023-11-19T06:18:37;94243.28;;;25.94;28.83
65359;BME280;52491;45.900;6.346;2023-11-19T06:21:03;94243.28;;;25.94;28.98
65359;BME280;52491;45.900;6.346;2023-11-19T06:23:28;94237.94;;;25.94;28.75
65359;BME280;52491;45.900;6.346;2023-11-19T06:25:54;94247.00;;;25.93;28.95
65359;BME280;52491;45.900;6.346;2023-11-19T06:28:19;94240.06;;;25.92;28.96
65359;BME280;52491;45.900;6.346;2023-11-19T06:30:45;94244.59;;;25.92;29.32
65359;BME280;52491;45.900;6.346;2023-11-19T06:33:14;94251.53;;;25.93;28.92
65359;BME280;52491;45.900;6.346;2023-11-19T06:35:40;94247.28;;;25.92;28.94
65359;BME280;52491;45.900;6.346;2023-11-19T06:38:06;94258.75;;;25.92;28.95
65359;BME280;52491;45.900;6.346;2023-11-19T06:40:33;94251.56;;;26.03;29.18
65359;BME280;52491;45.900;6.346;2023-11-19T06:42:58;94245.16;;;26.04;29.07
65359;BME280;52491;45.900;6.346;2023-11-19T06:45:24;94244.38;;;26.08;28.79
65359;BME280;52491;45.900;6.346;2023-11-19T06:47:50;94247.03;;;26.08;29.06
65359;BME280;52491;45.900;6.346;2023-11-19T06:50:16;94247.84;;;26.09;29.01
65359;BME280;52491;45.900;6.346;2023-11-19T06:52:43;94247.84;;;26.09;29.10
65359;BME280;52491;45.900;6.346;2023-11-19T06:55:10;94254.25;;;26.08;28.90
65359;BME280;52491;45.900;6.346;2023-11-19T06:57:36;94255.06;;;26.08;29.02
65359;BME280;52491;45.900;6.346;2023-11-19T07:00:02;94256.66;;;26.09;29.13
65359;BME280;52491;45.900;6.346;2023-11-19T07:02:30;94258.53;;;26.09;29.11
65359;BME280;52491;45.900;6.346;2023-11-19T07:04:56;94248.63;;;26.09;29.11
65359;BME280;52491;45.900;6.346;2023-11-19T07:07:22;94249.72;;;26.08;29.06
65359;BME280;52491;45.900;6.346;2023-11-19T07:09:47;94244.09;;;26.10;29.17
65359;BME280;52491;45.900;6.346;2023-11-19T07:12:13;94252.09;;;26.10;29.28
65359;BME280;52491;45.900;6.346;2023-11-19T07:14:40;94253.19;;;26.09;29.42
65359;BME280;52491;45.900;6.346;2023-11-19T07:17:07;94248.91;;;26.08;29.40
65359;BME280;52491;45.900;6.346;2023-11-19T07:19:34;94259.59;;;26.08;29.55
65359;BME280;52491;45.900;6.346;2023-11-19T07:22:01;94257.19;;;26.06;29.54
65359;BME280;52491;45.900;6.346;2023-11-19T07:24:27;94256.38;;;26.06;29.38
65359;BME280;52491;45.900;6.346;2023-11-19T07:26:53;94264.41;;;26.06;29.80
65359;BME280;52491;45.900;6.346;2023-11-19T07:29:19;94253.97;;;26.04;29.58
65359;BME280;52491;45.900;6.346;2023-11-19T07:31:48;94256.63;;;26.04;29.64
65359;BME280;52491;45.900;6.346;2023-11-19T07:34:14;94259.84;;;25.91;29.68
65359;BME280;52491;45.900;6.346;2023-11-19T07:36:40;94270.69;;;25.79;30.27
65359;BME280;52491;45.900;6.346;2023-11-19T07:39:06;94271.03;;;25.88;30.13
65359;BME280;52491;45.900;6.346;2023-11-19T07:41:31;94268.91;;;25.95;30.08
65359;BME280;52491;45.900;6.346;2023-11-19T07:43:57;94265.72;;;25.98;29.71
65359;BME280;52491;45.900;6.346;2023-11-19T07:46:23;94271.06;;;25.98;29.53
65359;BME280;52491;45.900;6.346;2023-11-19T07:48:48;94268.38;;;25.98;29.74
65359;BME280;52491;45.900;6.346;2023-11-19T07:51:14;94263.03;;;25.98;29.63
65359;BME280;52491;45.900;6.346;2023-11-19T07:53:40;94255.81;;;25.99;29.97
65359;BME280;52491;45.900;6.346;2023-11-19T07:56:07;94239.53;;;25.95;29.72
65359;BME280;52491;45.900;6.346;2023-11-19T07:58:33;94246.47;;;25.96;29.71
65359;BME280;52491;45.900;6.346;2023-11-19T08:00:59;94250.75;;;25.97;29.90
65359;BME280;52491;45.900;6.346;2023-11-19T08:03:24;94252.34;;;25.98;29.98
65359;BME280;52491;45.900;6.346;2023-11-19T08:05:50;94249.13;;;25.96;29.54
65359;BME280;52491;45.900;6.346;2023-11-19T08:08:16;94255.03;;;25.98;30.13
65359;BME280;52491;45.900;6.346;2023-11-19T08:10:42;94251.56;;;25.98;30.08
65359;BME280;52491;45.900;6.346;2023-11-19T08:13:08;94255.81;;;25.99;30.03
65359;BME280;52491;45.900;6.346;2023-11-19T08:15:34;94260.38;;;25.98;30.08
65359;BME280;52491;45.900;6.346;2023-11-19T08:17:59;94260.38;;;25.98;29.70
65359;BME280;52491;45.900;6.346;2023-11-19T08:20:25;94262.78;;;26.00;30.06
65359;BME280;52491;45.900;6.346;2023-11-19T08:22:50;94257.44;;;26.00;29.79
65359;BME280;52491;45.900;6.346;2023-11-19T08:25:16;94257.97;;;26.02;30.01
65359;BME280;52491;45.900;6.346;2023-11-19T08:27:42;94272.16;;;26.02;30.11
65359;BME280;52491;45.900;6.346;2023-11-19T08:30:08;94265.19;;;26.01;30.06
65359;BME280;52491;45.900;6.346;2023-11-19T08:32:34;94268.66;;;26.02;30.36
65359;BME280;52491;45.900;6.346;2023-11-19T08:35:01;94272.16;;;26.02;30.16
65359;BME280;52491;45.900;6.346;2023-11-19T08:37:27;94272.16;;;26.02;29.96
65359;BME280;52491;45.900;6.346;2023-11-19T08:39:53;94268.94;;;26.00;30.29
65359;BME280;52491;45.900;6.346;2023-11-19T08:42:19;94267.34;;;25.99;30.23
65359;BME280;52491;45.900;6.346;2023-11-19T08:44:49;94267.06;;;26.01;30.50
65359;BME280;52491;45.900;6.346;2023-11-19T08:47:18;94252.88;;;25.90;30.31
65359;BME280;52491;45.900;6.346;2023-11-19T08:49:44;94239.00;;;25.98;30.18
65359;BME280;52491;45.900;6.346;2023-11-19T08:52:10;94238.19;;;25.98;30.47
65359;BME280;52491;45.900;6.346;2023-11-19T08:54:36;94236.31;;;25.98;30.10
65359;BME280;52491;45.900;6.346;2023-11-19T08:57:03;94232.84;;;25.98;30.45
65359;BME280;52491;45.900;6.346;2023-11-19T08:59:29;94246.47;;;25.96;30.62
65359;BME280;52491;45.900;6.346;2023-11-19T09:01:58;94253.16;;;25.99;30.31
65359;BME280;52491;45.900;6.346;2023-11-19T09:04:23;94254.22;;;25.98;30.65
65359;BME280;52491;45.900;6.346;2023-11-19T09:06:49;94261.16;;;25.99;30.41
65359;BME280;52491;45.900;6.346;2023-11-19T09:09:15;94261.16;;;25.99;30.48
65359;BME280;52491;45.900;6.346;2023-11-19T09:11:41;94256.09;;;25.97;30.59
65359;BME280;52491;45.900;6.346;2023-11-19T09:14:06;94252.63;;;25.97;30.18
65359;BME280;52491;45.900;6.346;2023-11-19T09:16:32;94242.75;;;25.97;30.58
65359;BME280;52491;45.900;6.346;2023-11-19T09:18:58;94249.97;;;25.97;30.54
65359;BME280;52491;45.900;6.346;2023-11-19T09:21:25;94240.06;;;25.97;30.76
65359;BME280;52491;45.900;6.346;2023-11-19T09:23:51;94235.53;;;25.98;30.61
65359;BME280;52491;45.900;6.346;2023-11-19T09:26:16;94244.63;;;25.97;30.76
65359;BME280;52491;45.900;6.346;2023-11-19T09:28:42;94238.44;;;25.96;30.60
65359;BME280;52491;45.900;6.346;2023-11-19T09:31:14;94250.47;;;25.99;30.73
65359;BME280;52491;45.900;6.346;2023-11-19T09:33:40;94245.41;;;25.97;30.43
65359;BME280;52491;45.900;6.346;2023-11-19T09:36:06;94247.00;;;25.98;30.67
65359;BME280;52491;45.900;6.346;2023-11-19T09:38:31;94245.41;;;25.97;30.41
65359;BME280;52491;45.900;6.346;2023-11-19T09:40:58;94246.47;;;25.96;30.38
65359;BME280;52491;45.900;6.346;2023-11-19T09:43:26;94252.88;;;25.95;30.85
65359;BME280;52491;45.900;6.346;2023-11-19T09:45:54;94242.19;;;25.95;30.67
65359;BME280;52491;45.900;6.346;2023-11-19T09:48:21;94229.91;;;25.94;30.69
65359;BME280;52491;45.900;6.346;2023-11-19T09:50:47;94227.25;;;25.94;30.47
65359;BME280;52491;45.900;6.346;2023-11-19T09:53:14;94227.25;;;25.94;30.76
65359;BME280;52491;45.900;6.346;2023-11-19T09:55:40;94220.03;;;25.95;30.66
65359;BME280;52491;45.900;6.346;2023-11-19T09:58:07;94222.69;;;25.95;30.73
65359;BME280;52491;45.900;6.346;2023-11-19T10:00:33;94214.94;;;25.93;30.42
65359;BME280;52491;45.900;6.346;2023-11-19T10:03:00;94216.00;;;25.92;30.58
65359;BME280;52491;45.900;6.346;2023-11-19T10:05:26;94217.88;;;25.92;30.64
65359;BME280;52491;45.900;6.346;2023-11-19T10:07:52;94216.56;;;25.94;30.70
65359;BME280;52491;45.900;6.346;2023-11-19T10:10:18;94222.16;;;25.93;30.83
65359;BME280;52491;45.900;6.346;2023-11-19T10:12:47;94212.25;;;25.93;30.81
65359;BME280;52491;45.900;6.346;2023-11-19T10:15:21;94212.00;;;25.95;30.88
65359;BME280;52491;45.900;6.346;2023-11-19T10:17:57;94203.22;;;25.94;30.76
65359;BME280;52491;45.900;6.346;2023-11-19T10:20:23;94207.22;;;25.92;30.88
65359;BME280;52491;45.900;6.346;2023-11-19T10:22:55;94202.41;;;25.94;30.57
65359;BME280;52491;45.900;6.346;2023-11-19T10:25:24;94197.31;;;25.92;30.65
65359;BME280;52491;45.900;6.346;2023-11-19T10:27:50;94193.06;;;25.91;31.06
65359;BME280;52491;45.900;6.346;2023-11-19T10:30:26;94197.06;;;25.94;30.83
65359;BME280;52491;45.900;6.346;2023-11-19T10:33:13;94204.00;;;25.95;31.05
65359;BME280;52491;45.900;6.346;2023-11-19T10:35:56;94199.75;;;25.94;30.98
65359;BME280;52491;45.900;6.346;2023-11-19T10:38:23;94200.78;;;25.93;31.05
65359;BME280;52491;45.900;6.346;2023-11-19T10:40:50;94191.97;;;25.92;31.29
65359;BME280;52491;45.900;6.346;2023-11-19T10:43:20;94191.97;;;25.92;30.88
65359;BME280;52491;45.900;6.346;2023-11-19T10:45:48;94194.66;;;25.92;31.32
65359;BME280;52491;45.900;6.346;2023-11-19T10:48:14;94194.66;;;25.92;31.02
65359;BME280;52491;45.900;6.346;2023-11-19T10:50:41;94198.13;;;25.93;31.25
65359;BME280;52491;45.900;6.346;2023-11-19T10:53:09;94200.78;;;25.93;31.40
65359;BME280;52491;45.900;6.346;2023-11-19T10:55:36;94196.53;;;25.92;31.46
65359;BME280;52491;45.900;6.346;2023-11-19T10:58:09;94206.41;;;25.91;31.52
65359;BME280;52491;45.900;6.346;2023-11-19T11:01:01;94200.53;;;25.94;31.20
65359;BME280;52491;45.900;6.346;2023-11-19T11:03:40;94197.31;;;25.92;31.20
65359;BME280;52491;45.900;6.346;2023-11-19T11:06:05;94186.63;;;25.92;31.27
65359;BME280;52491;45.900;6.346;2023-11-19T11:08:31;94189.28;;;25.87;31.38
65359;BME280;52491;45.900;6.346;2023-11-19T11:11:01;94189.03;;;25.88;31.39
65359;BME280;52491;45.900;6.346;2023-11-19T11:13:30;94194.38;;;25.88;31.28
65359;BME280;52491;45.900;6.346;2023-11-19T11:15:57;94191.72;;;25.88;31.12
65359;BME280;52491;45.900;6.346;2023-11-19T11:18:26;94200.75;;;25.87;31.62
65359;BME280;52491;45.900;6.346;2023-11-19T11:20:56;94207.22;;;25.92;31.27
65359;BME280;52491;45.900;6.346;2023-11-19T11:26:39;94217.09;;;25.91;31.32
65359;BME280;52491;45.900;6.346;2023-11-19T11:29:20;94212.75;;;25.75;31.76
65359;BME280;52491;45.900;6.346;2023-11-19T11:37:42;94216.78;;;25.87;31.14
65359;BME280;52491;45.900;6.346;2023-11-19T11:40:16;94206.94;;;25.88;31.36
65359;BME280;52491;45.900;6.346;2023-11-19T11:42:46;94218.66;;;25.87;31.26
65359;BME280;52491;45.900;6.346;2023-11-19T11:45:13;94229.34;;;25.87;31.49
65359;BME280;52491;45.900;6.346;2023-11-19T11:50:11;94228.81;;;25.85;31.29
65359;BME280;52491;45.900;6.346;2023-11-19T11:55:25;94229.88;;;25.84;31.69
65359;BME280;52491;45.900;6.346;2023-11-19T11:57:51;94239.78;;;25.83;31.79
65359;BME280;52491;45.900;6.346;2023-11-19T12:00:30;94240.31;;;25.85;31.65
65359;BME280;52491;45.900;6.346;2023-11-19T12:02:59;94239.50;;;25.85;31.65
65359;BME280;52491;45.900;6.346;2023-11-19T12:05:26;94245.66;;;25.85;31.79
65359;BME280;52491;45.900;6.346;2023-11-19T12:08:03;94241.66;;;25.88;32.01
65359;BME280;52491;45.900;6.346;2023-11-19T12:10:30;94244.59;;;25.86;32.04
65359;BME280;52491;45.900;6.346;2023-11-19T12:13:01;94240.84;;;25.87;32.11
65359;BME280;52491;45.900;6.346;2023-11-19T12:15:27;94243.78;;;25.86;32.15
65359;BME280;52491;45.900;6.346;2023-11-19T12:17:54;94245.66;;;25.85;32.65
65359;BME280;52491;45.900;6.346;2023-11-19T12:20:22;94249.94;;;25.86;32.22
65359;BME280;52491;45.900;6.346;2023-11-19T12:22:49;94254.47;;;25.86;32.42
65359;BME280;52491;45.900;6.346;2023-11-19T12:25:16;94250.16;;;25.85;32.99
65359;BME280;52491;45.900;6.346;2023-11-19T12:27:46;94249.94;;;25.86;32.55
65359;BME280;52491;45.900;6.346;2023-11-19T12:30:17;94253.41;;;25.87;32.49
65359;BME280;52491;45.900;6.346;2023-11-19T12:32:45;94250.16;;;25.85;32.73
65359;BME280;52491;45.900;6.346;2023-11-19T12:35:12;94251.78;;;25.86;32.98
65359;BME280;52491;45.900;6.346;2023-11-19T12:37:45;94242.72;;;25.87;32.72
65359;BME280;52491;45.900;6.346;2023-11-19T12:40:18;94240.31;;;25.85;32.92
65359;BME280;52491;45.900;6.346;2023-11-19T12:42:46;94237.66;;;25.85;33.00
65359;BME280;52491;45.900;6.346;2023-11-19T12:45:12;94243.25;;;25.84;32.82
65359;BME280;52491;45.900;6.346;2023-11-19T12:47:40;94243.25;;;25.84;33.22
65359;BME280;52491;45.900;6.346;2023-11-19T12:50:07;94239.50;;;25.85;33.25
65359;BME280;52491;45.900;6.346;2023-11-19T12:52:35;94230.44;;;25.86;32.95
65359;BME280;52491;45.900;6.346;2023-11-19T12:55:01;94226.41;;;25.83;33.27
65359;BME280;52491;45.900;6.346;2023-11-19T12:57:40;94228.31;;;25.88;33.25
65359;BME280;52491;45.900;6.346;2023-11-19T13:00:06;94228.81;;;25.85;33.01
65359;BME280;52491;45.900;6.346;2023-11-19T13:02:45;94227.47;;;25.87;33.30
65359;BME280;52491;45.900;6.346;2023-11-19T13:10:26;94217.31;;;25.84;33.01
65359;BME280;52491;45.900;6.346;2023-11-19T13:13:06;94211.72;;;25.86;33.13
65359;BME280;52491;45.900;6.346;2023-11-19T13:15:33;94204.25;;;25.83;33.00
65359;BME280;52491;45.900;6.346;2023-11-19T13:17:59;94201.56;;;25.83;33.16
65359;BME280;52491;45.900;6.346;2023-11-19T13:20:25;94200.50;;;25.84;33.35
65359;BME280;52491;45.900;6.346;2023-11-19T13:23:01;94195.97;;;25.84;33.18